Time;durP1;ratioP1;P1;durP2;ratioP2;P2;SDS_P1;SDS_P2;PMS_P1;PMS_P2;Temp;Humidity;BMP_temperature;BMP_pressure;BME280_temperature;BME280_humidity;BME280_pressure;Samples;Min_cycle;Max_cycle;Signal;HPM_P1;HPM_P2
2021/07/23 00:01:38;;;;;;;13.63;11.23;;;18.00;99.90;;;;;;5071583;28;20639;-70
2021/07/23 00:04:04;;;;;;;17.90;12.00;;;17.90;99.90;;;;;;5071584;28;20181;-70
2021/07/23 00:06:30;;;;;;;14.83;12.10;;;17.90;99.90;;;;;;5071793;28;20210;-71
2021/07/23 00:08:55;;;;;;;18.73;12.87;;;17.90;99.90;;;;;;5071460;28;20447;-70
2021/07/23 00:11:21;;;;;;;15.07;11.10;;;17.80;99.90;;;;;;5071546;28;20199;-70
2021/07/23 00:13:47;;;;;;;14.63;13.10;;;17.80;99.90;;;;;;5071551;28;20549;-70
2021/07/23 00:16:13;;;;;;;17.10;12.97;;;17.70;99.90;;;;;;5071477;28;20169;-70
2021/07/23 00:18:38;;;;;;;13.47;12.07;;;17.70;99.90;;;;;;5071762;28;20929;-70
2021/07/23 00:21:04;;;;;;;15.70;11.57;;;17.70;99.90;;;;;;5071690;28;20528;-70
2021/07/23 00:23:29;;;;;;;15.80;12.77;;;17.60;99.90;;;;;;5071721;28;20184;-71
2021/07/23 00:25:55;;;;;;;17.10;12.10;;;17.60;99.90;;;;;;5071888;28;20244;-71
2021/07/23 00:28:20;;;;;;;18.33;12.50;;;17.60;99.90;;;;;;5070280;28;20260;-70
2021/07/23 00:30:45;;;;;;;16.97;13.17;;;17.60;99.90;;;;;;5070311;28;20597;-70
2021/07/23 00:33:11;;;;;;;15.10;12.37;;;17.50;99.90;;;;;;5075089;28;20198;-70
2021/07/23 00:35:36;;;;;;;16.37;11.67;;;17.50;99.90;;;;;;5075350;28;20176;-70
2021/07/23 00:38:02;;;;;;;16.40;13.07;;;17.50;99.90;;;;;;5075446;28;20165;-70
2021/07/23 00:40:27;;;;;;;16.97;11.53;;;17.40;99.90;;;;;;5075369;28;20200;-70
2021/07/23 00:42:53;;;;;;;13.93;11.40;;;17.40;99.90;;;;;;5075087;28;20168;-71
2021/07/23 00:45:19;;;;;;;14.77;11.93;;;17.40;99.90;;;;;;5075035;28;20628;-70
2021/07/23 00:47:48;;;;;;;15.93;11.53;;;17.40;99.90;;;;;;5075168;28;20596;-70
2021/07/23 00:50:13;;;;;;;14.83;11.40;;;17.40;99.90;;;;;;5074900;28;20454;-71
2021/07/23 00:52:39;;;;;;;18.60;13.10;;;17.40;99.90;;;;;;5074911;28;20510;-70
2021/07/23 00:55:06;;;;;;;14.47;11.27;;;17.40;99.90;;;;;;5074897;28;20555;-70
2021/07/23 00:57:32;;;;;;;18.53;13.63;;;17.30;99.90;;;;;;5075028;28;20235;-70
2021/07/23 00:59:59;;;;;;;16.20;11.60;;;17.30;99.90;;;;;;5074831;28;20996;-70
2021/07/23 01:02:25;;;;;;;16.80;12.13;;;17.30;99.90;;;;;;5072087;28;20239;-71
2021/07/23 01:04:51;;;;;;;15.70;12.67;;;17.20;99.90;;;;;;5074817;28;20890;-70
2021/07/23 01:07:16;;;;;;;19.43;13.70;;;17.20;99.90;;;;;;5074857;28;20169;-70
2021/07/23 01:09:42;;;;;;;14.93;11.87;;;17.20;99.90;;;;;;5075158;28;20449;-71
2021/07/23 01:12:09;;;;;;;14.47;12.20;;;17.20;99.90;;;;;;5073326;28;20155;-70
2021/07/23 01:14:37;;;;;;;19.30;13.17;;;17.20;99.90;;;;;;5074620;28;20625;-70
2021/07/23 01:17:03;;;;;;;16.07;13.13;;;17.10;99.90;;;;;;5074479;28;20431;-70
2021/07/23 01:19:45;;;;;;;19.37;12.10;;;17.10;99.90;;;;;;5074485;28;20974;-70
2021/07/23 01:22:14;;;;;;;18.10;13.30;;;17.10;99.90;;;;;;5074201;28;20699;-70
2021/07/23 01:24:41;;;;;;;15.80;13.17;;;17.00;99.90;;;;;;5074454;28;20443;-70
2021/07/23 01:27:06;;;;;;;16.93;12.40;;;17.10;99.90;;;;;;5073173;28;20415;-70
2021/07/23 01:29:31;;;;;;;19.67;13.40;;;17.00;99.90;;;;;;5074234;28;20427;-70
2021/07/23 01:31:57;;;;;;;16.33;12.30;;;17.00;99.90;;;;;;5074329;28;20192;-70
2021/07/23 01:34:22;;;;;;;16.27;12.63;;;17.10;99.90;;;;;;5074065;28;20674;-70
2021/07/23 01:36:48;;;;;;;17.67;12.03;;;17.10;99.90;;;;;;5072596;28;20259;-70
2021/07/23 01:39:17;;;;;;;15.00;12.50;;;17.10;99.90;;;;;;5074021;28;20209;-70
2021/07/23 01:41:43;;;;;;;19.07;12.93;;;17.10;99.90;;;;;;5074337;28;20688;-70
2021/07/23 01:44:09;;;;;;;15.97;13.60;;;17.10;99.90;;;;;;5073973;28;20497;-70
2021/07/23 01:46:35;;;;;;;15.80;14.00;;;17.10;99.90;;;;;;5074134;28;20172;-70
2021/07/23 01:49:00;;;;;;;15.77;13.60;;;17.10;99.90;;;;;;5074071;28;20414;-71
2021/07/23 01:51:26;;;;;;;16.07;12.90;;;17.10;99.90;;;;;;5073865;28;20224;-69
2021/07/23 01:53:51;;;;;;;14.43;12.70;;;17.10;99.90;;;;;;5073923;28;20678;-70
2021/07/23 01:56:17;;;;;;;15.47;13.00;;;17.10;99.90;;;;;;5073894;28;20185;-69
2021/07/23 01:58:54;;;;;;;16.13;13.17;;;17.10;99.90;;;;;;5073723;28;20605;-69
2021/07/23 02:01:20;;;;;;;14.77;12.27;;;17.10;99.90;;;;;;5072417;28;20168;-70
2021/07/23 02:03:45;;;;;;;20.20;12.17;;;17.10;99.90;;;;;;5073849;28;20429;-70
2021/07/23 02:06:11;;;;;;;15.70;11.23;;;17.10;99.90;;;;;;5073605;28;20233;-70
2021/07/23 02:08:36;;;;;;;14.50;12.60;;;17.10;99.90;;;;;;5073828;28;20180;-70
2021/07/23 02:11:02;;;;;;;17.97;12.20;;;17.10;99.90;;;;;;5073497;28;20196;-70
2021/07/23 02:13:27;;;;;;;15.47;12.00;;;17.10;99.90;;;;;;5073570;28;20203;-70
2021/07/23 02:15:53;;;;;;;16.53;12.90;;;17.10;99.90;;;;;;5073430;28;20161;-70
2021/07/23 02:18:18;;;;;;;15.90;12.37;;;17.10;99.90;;;;;;5073412;28;20628;-70
2021/07/23 02:20:44;;;;;;;16.90;12.77;;;17.10;99.90;;;;;;5073389;28;20266;-70
2021/07/23 02:23:09;;;;;;;14.30;10.90;;;17.00;99.90;;;;;;5073270;28;20164;-70
2021/07/23 02:25:35;;;;;;;17.93;12.93;;;17.00;99.90;;;;;;5073344;28;20169;-70
2021/07/23 02:28:01;;;;;;;16.57;13.67;;;17.00;99.90;;;;;;5073490;28;20701;-70
2021/07/23 02:30:26;;;;;;;17.03;12.07;;;17.00;99.90;;;;;;5073017;28;20191;-70
2021/07/23 02:32:51;;;;;;;18.33;13.20;;;17.00;99.90;;;;;;5072943;28;20197;-70
2021/07/23 02:35:17;;;;;;;18.50;12.10;;;17.00;99.90;;;;;;5071814;28;20516;-70
2021/07/23 02:37:42;;;;;;;16.37;13.80;;;17.00;99.90;;;;;;5072989;28;20230;-70
2021/07/23 02:40:09;;;;;;;14.83;13.20;;;17.00;99.90;;;;;;5072942;28;20193;-70
2021/07/23 02:42:34;;;;;;;18.00;14.57;;;17.00;99.90;;;;;;5072721;28;20159;-70
2021/07/23 02:45:00;;;;;;;18.70;13.93;;;17.00;99.90;;;;;;5072657;28;20453;-70
2021/07/23 02:47:25;;;;;;;18.07;14.07;;;17.00;99.90;;;;;;5072976;28;20166;-70
2021/07/23 02:49:50;;;;;;;18.63;12.57;;;17.00;99.90;;;;;;5072700;28;20200;-70
2021/07/23 02:52:16;;;;;;;15.90;13.60;;;17.00;99.90;;;;;;5072592;28;20585;-70
2021/07/23 02:54:42;;;;;;;21.90;14.00;;;17.00;99.90;;;;;;5071971;28;20176;-70
2021/07/23 02:57:07;;;;;;;18.13;14.07;;;17.10;99.90;;;;;;5072652;28;20777;-70
2021/07/23 02:59:33;;;;;;;17.40;12.77;;;17.00;99.90;;;;;;5072230;28;20225;-70
2021/07/23 03:01:58;;;;;;;16.70;14.33;;;17.00;99.90;;;;;;5072319;28;20189;-71
2021/07/23 03:04:24;;;;;;;18.57;13.50;;;16.90;99.90;;;;;;5072340;28;20176;-69
2021/07/23 03:06:49;;;;;;;18.33;13.87;;;16.90;99.90;;;;;;5072213;28;20169;-68
2021/07/23 03:09:15;;;;;;;18.27;13.50;;;16.90;99.90;;;;;;5072285;28;20553;-69
2021/07/23 03:11:40;;;;;;;20.77;15.83;;;16.90;99.90;;;;;;5072298;28;20169;-71
2021/07/23 03:14:06;;;;;;;16.10;13.23;;;16.90;99.90;;;;;;5072025;28;20575;-69
2021/07/23 03:16:31;;;;;;;17.27;14.10;;;16.90;99.90;;;;;;5072510;28;20172;-69
2021/07/23 03:18:57;;;;;;;15.57;13.80;;;16.90;99.90;;;;;;5072138;28;20195;-72
2021/07/23 03:21:22;;;;;;;16.70;13.20;;;16.90;99.90;;;;;;5072008;28;20183;-70
2021/07/23 03:23:49;;;;;;;21.40;16.37;;;16.90;99.90;;;;;;5072123;28;20169;-70
2021/07/23 03:26:15;;;;;;;17.60;14.03;;;16.90;99.90;;;;;;5072082;28;20182;-70
2021/07/23 03:28:41;;;;;;;17.30;14.03;;;16.90;99.90;;;;;;5071845;28;20408;-70
2021/07/23 03:31:13;;;;;;;18.07;14.70;;;16.90;99.90;;;;;;5071903;28;20421;-70
2021/07/23 03:33:40;;;;;;;18.17;15.00;;;16.90;99.90;;;;;;5072087;28;20191;-70
2021/07/23 03:36:05;;;;;;;18.83;15.03;;;16.90;99.90;;;;;;5070743;28;20419;-70
2021/07/23 03:38:31;;;;;;;26.33;15.80;;;17.00;99.90;;;;;;5071985;28;20820;-70
2021/07/23 03:40:57;;;;;;;20.17;15.33;;;17.00;99.90;;;;;;5071696;28;20276;-71
2021/07/23 03:43:22;;;;;;;19.37;14.97;;;17.10;99.90;;;;;;5071864;28;20407;-70
2021/07/23 03:45:48;;;;;;;17.80;14.03;;;17.10;99.90;;;;;;5071886;28;20168;-70
2021/07/23 03:48:13;;;;;;;17.70;15.37;;;17.20;99.90;;;;;;5071675;28;20176;-70
2021/07/23 03:50:39;;;;;;;22.03;14.47;;;17.20;99.90;;;;;;5071903;28;20265;-70
2021/07/23 03:53:04;;;;;;;18.33;14.83;;;17.20;99.90;;;;;;5071661;28;20205;-70
2021/07/23 03:55:29;;;;;;;16.97;14.10;;;17.20;99.90;;;;;;5071666;28;20173;-70
2021/07/23 03:57:55;;;;;;;17.00;14.47;;;17.20;99.90;;;;;;5071494;28;20190;-70
2021/07/23 04:00:20;;;;;;;16.93;14.73;;;17.20;99.90;;;;;;5071596;28;20686;-70
2021/07/23 04:02:46;;;;;;;18.10;15.50;;;17.20;99.90;;;;;;5071453;28;20186;-70
2021/07/23 04:05:11;;;;;;;18.77;15.70;;;17.20;99.90;;;;;;5072261;28;20269;-70
2021/07/23 04:07:37;;;;;;;23.47;15.07;;;17.10;99.90;;;;;;5075762;28;20173;-70
2021/07/23 04:10:04;;;;;;;19.40;14.93;;;17.10;99.90;;;;;;5075720;28;20625;-70
2021/07/23 04:12:29;;;;;;;18.33;15.20;;;17.10;99.90;;;;;;5075569;28;20171;-70
2021/07/23 04:14:55;;;;;;;16.67;14.70;;;17.20;99.90;;;;;;5075705;28;20454;-70
2021/07/23 04:17:20;;;;;;;19.13;15.10;;;17.20;99.90;;;;;;5075725;28;20195;-70
2021/07/23 04:19:45;;;;;;;21.20;13.83;;;17.20;99.90;;;;;;5074402;28;20190;-70
2021/07/23 04:22:11;;;;;;;20.10;15.20;;;17.30;99.90;;;;;;5075535;28;20650;-70
2021/07/23 04:24:37;;;;;;;18.17;14.97;;;17.30;99.90;;;;;;5075290;28;20167;-70
2021/07/23 04:27:03;;;;;;;21.07;15.40;;;17.30;99.90;;;;;;5074002;28;20213;-69
2021/07/23 04:29:28;;;;;;;23.67;15.43;;;17.30;99.90;;;;;;5075472;28;20196;-69
2021/07/23 04:31:54;;;;;;;18.70;14.73;;;17.40;99.90;;;;;;5075235;28;20199;-69
2021/07/23 04:34:19;;;;;;;19.80;15.13;;;17.40;99.90;;;;;;5075197;28;20311;-69
2021/07/23 04:36:45;;;;;;;19.73;14.90;;;17.50;99.90;;;;;;5075292;28;20325;-69
2021/07/23 04:39:10;;;;;;;20.23;15.20;;;17.50;99.90;;;;;;5075172;28;20192;-69
2021/07/23 04:41:36;;;;;;;16.93;14.37;;;17.60;99.90;;;;;;5075667;28;20169;-70
2021/07/23 04:44:01;;;;;;;19.70;15.50;;;17.60;99.90;;;;;;5075560;28;20169;-70
2021/07/23 04:46:27;;;;;;;21.33;14.70;;;17.70;99.90;;;;;;5075386;28;20244;-70
2021/07/23 04:48:52;;;;;;;18.70;14.80;;;17.70;99.90;;;;;;5074843;28;20631;-68
2021/07/23 04:51:18;;;;;;;18.50;15.30;;;17.80;99.90;;;;;;5074921;28;20166;-68
2021/07/23 04:53:43;;;;;;;17.20;14.70;;;17.80;99.90;;;;;;5075261;28;20207;-67
2021/07/23 04:56:08;;;;;;;18.27;14.70;;;17.80;99.90;;;;;;5075322;28;20162;-69
2021/07/23 04:58:34;;;;;;;22.13;14.50;;;18.00;99.90;;;;;;5075683;28;20170;-69
2021/07/23 05:01:00;;;;;;;17.73;14.20;;;18.10;99.90;;;;;;5075312;28;20194;-69
2021/07/23 05:03:38;;;;;;;19.97;14.90;;;18.10;99.90;;;;;;5074915;28;20200;-68
2021/07/23 05:06:06;;;;;;;17.37;14.60;;;18.30;99.90;;;;;;5075239;28;20176;-68
2021/07/23 05:08:32;;;;;;;17.70;13.83;;;18.70;99.90;;;;;;5074771;28;20412;-69
2021/07/23 05:10:58;;;;;;;19.83;14.13;;;18.80;99.90;;;;;;5074554;28;20528;-68
2021/07/23 05:13:24;;;;;;;17.30;13.80;;;19.30;99.90;;;;;;5074718;28;20448;-68
2021/07/23 05:15:49;;;;;;;19.17;13.70;;;19.50;99.90;;;;;;5074786;28;20963;-69
2021/07/23 05:18:16;;;;;;;19.17;13.70;;;19.40;99.90;;;;;;5073756;28;20162;-69
2021/07/23 05:20:43;;;;;;;16.03;14.00;;;19.30;99.90;;;;;;5074656;28;20618;-68
2021/07/23 05:23:08;;;;;;;18.60;13.90;;;19.10;99.90;;;;;;5074777;28;20411;-69
2021/07/23 05:25:34;;;;;;;17.07;13.97;;;19.30;99.90;;;;;;5074753;28;20997;-69
2021/07/23 05:28:00;;;;;;;16.33;13.67;;;19.60;99.90;;;;;;5074619;28;20160;-69
2021/07/23 05:30:26;;;;;;;17.93;13.90;;;19.80;99.90;;;;;;5074422;28;20196;-69
2021/07/23 05:32:51;;;;;;;21.07;14.90;;;19.80;99.90;;;;;;5074128;28;20989;-69
2021/07/23 05:35:17;;;;;;;14.80;13.30;;;19.60;99.90;;;;;;5073048;28;20177;-68
2021/07/23 05:37:42;;;;;;;17.27;14.20;;;19.40;99.90;;;;;;5074463;28;20175;-68
2021/07/23 05:40:08;;;;;;;21.33;13.17;;;19.30;99.90;;;;;;5074202;28;20564;-68
2021/07/23 05:42:34;;;;;;;17.20;14.30;;;19.20;99.90;;;;;;5074175;28;20171;-69
2021/07/23 05:44:59;;;;;;;17.47;13.77;;;19.10;99.90;;;;;;5072957;28;20404;-69
2021/07/23 05:47:25;;;;;;;16.70;13.07;;;19.20;99.90;;;;;;5074017;28;20658;-68
2021/07/23 05:49:51;;;;;;;16.20;14.40;;;19.20;99.90;;;;;;5074057;28;20494;-68
2021/07/23 05:52:16;;;;;;;17.10;14.23;;;19.20;99.90;;;;;;5073660;28;20407;-68
2021/07/23 05:54:42;;;;;;;18.23;15.77;;;19.30;99.90;;;;;;5073802;28;20207;-68
2021/07/23 05:57:07;;;;;;;17.43;15.63;;;19.30;99.90;;;;;;5073870;28;20636;-71
2021/07/23 05:59:33;;;;;;;19.50;15.00;;;19.40;99.90;;;;;;5073820;28;20201;-68
2021/07/23 06:01:58;;;;;;;20.53;14.37;;;19.70;99.90;;;;;;5073801;28;20177;-69
2021/07/23 06:04:24;;;;;;;15.93;14.00;;;20.20;99.90;;;;;;5073725;28;20187;-70
2021/07/23 06:06:49;;;;;;;18.27;14.67;;;20.30;99.90;;;;;;5073526;28;20167;-70
2021/07/23 06:09:16;;;;;;;18.90;12.50;;;20.80;99.90;;;;;;5073488;28;20637;-68
2021/07/23 06:11:42;;;;;;;20.33;15.77;;;21.20;99.90;;;;;;5073675;28;20594;-68
2021/07/23 06:14:07;;;;;;;16.90;14.47;;;21.20;99.90;;;;;;5073533;28;20548;-68
2021/07/23 06:16:33;;;;;;;15.00;12.70;;;21.70;99.90;;;;;;5073527;28;20670;-68
2021/07/23 06:18:59;;;;;;;15.10;12.70;;;21.50;99.90;;;;;;5073240;28;20639;-68
2021/07/23 06:21:26;;;;;;;15.33;12.73;;;21.60;99.90;;;;;;5073209;28;20175;-68
2021/07/23 06:23:51;;;;;;;14.80;13.30;;;22.30;99.90;;;;;;5073120;28;20441;-68
2021/07/23 06:26:17;;;;;;;14.37;12.87;;;22.50;99.90;;;;;;5073438;28;20436;-68
2021/07/23 06:28:42;;;;;;;16.87;15.07;;;23.20;99.90;;;;;;5072545;28;20185;-69
2021/07/23 06:31:08;;;;;;;14.13;12.43;;;23.70;99.90;;;;;;5072885;28;20200;-68
2021/07/23 06:33:33;;;;;;;15.83;13.37;;;24.20;99.90;;;;;;5073175;28;20201;-69
2021/07/23 06:36:02;;;;;;;13.87;12.10;;;24.20;99.90;;;;;;5072995;28;20166;-70
2021/07/23 06:38:28;;;;;;;13.70;10.60;;;24.00;99.90;;;;;;5072773;28;20664;-69
2021/07/23 06:40:54;;;;;;;11.00;10.00;;;24.10;99.90;;;;;;5072875;28;20424;-70
2021/07/23 06:43:20;;;;;;;12.97;10.03;;;24.30;99.90;;;;;;5073045;28;20174;-69
2021/07/23 06:45:55;;;;;;;11.40;9.93;;;25.20;99.90;;;;;;5072903;28;20227;-70
2021/07/23 06:48:21;;;;;;;12.93;11.63;;;26.00;99.90;;;;;;5071456;28;20432;-70
2021/07/23 06:50:49;;;;;;;11.70;10.27;;;25.30;99.90;;;;;;5072579;28;20466;-70
2021/07/23 06:53:18;;;;;;;11.10;9.60;;;25.10;99.90;;;;;;5072930;28;20601;-70
2021/07/23 06:55:43;;;;;;;12.27;10.13;;;25.50;99.90;;;;;;5072551;28;20440;-70
2021/07/23 06:58:09;;;;;;;13.67;11.10;;;26.20;99.90;;;;;;5072524;28;20440;-70
2021/07/23 07:00:35;;;;;;;10.40;9.23;;;26.60;99.90;;;;;;5072498;28;20240;-70
2021/07/23 07:03:01;;;;;;;10.63;9.57;;;26.70;99.90;;;;;;5072318;28;20428;-70
2021/07/23 07:05:28;;;;;;;11.60;9.60;;;26.50;99.90;;;;;;5072391;28;20162;-70
2021/07/23 07:07:53;;;;;;;9.20;8.30;;;25.80;99.90;;;;;;5072340;28;20838;-70
2021/07/23 07:10:19;;;;;;;8.90;8.07;;;24.80;99.90;;;;;;5072266;28;20475;-73
2021/07/23 07:12:44;;;;;;;9.53;8.17;;;24.90;99.90;;;;;;5072441;28;20257;-70
2021/07/23 07:15:10;;;;;;;9.53;8.47;;;25.10;99.90;;;;;;5072493;28;20697;-70
2021/07/23 07:17:36;;;;;;;10.10;8.47;;;25.70;99.90;;;;;;5072279;28;20162;-70
2021/07/23 07:20:01;;;;;;;9.67;8.57;;;24.70;99.90;;;;;;5072051;28;20193;-70
2021/07/23 07:22:27;;;;;;;9.17;8.37;;;25.40;99.90;;;;;;5072148;28;20174;-70
2021/07/23 07:24:53;;;;;;;9.70;7.47;;;25.50;99.90;;;;;;5072354;28;20236;-70
2021/07/23 07:27:19;;;;;;;10.50;9.47;;;25.20;99.90;;;;;;5072030;28;20223;-70
2021/07/23 07:29:45;;;;;;;9.90;8.90;;;25.30;99.90;;;;;;5072019;28;20429;-70
2021/07/23 07:32:10;;;;;;;10.10;9.13;;;25.30;99.90;;;;;;5071930;28;20529;-70
2021/07/23 07:34:36;;;;;;;9.60;7.90;;;26.40;99.90;;;;;;5071675;28;20653;-70
2021/07/23 07:37:03;;;;;;;10.80;8.43;;;26.60;99.90;;;;;;5072235;28;20162;-70
2021/07/23 07:39:28;;;;;;;9.67;7.23;;;25.80;99.90;;;;;;5072192;28;20473;-70
2021/07/23 07:41:54;;;;;;;8.33;6.97;;;25.90;99.90;;;;;;5071587;28;20839;-70
2021/07/23 07:44:20;;;;;;;7.77;7.00;;;25.70;99.90;;;;;;5071881;28;20162;-70
2021/07/23 07:46:45;;;;;;;7.17;6.47;;;25.30;99.90;;;;;;5071882;28;20414;-70
2021/07/23 07:49:11;;;;;;;7.70;6.97;;;25.70;99.90;;;;;;5071872;28;20235;-70
2021/07/23 07:51:36;;;;;;;7.07;6.40;;;26.00;99.90;;;;;;5073101;28;20162;-72
2021/07/23 07:54:02;;;;;;;9.30;6.80;;;26.10;99.90;;;;;;5076769;28;20668;-72
2021/07/23 07:56:27;;;;;;;8.80;8.00;;;26.00;99.90;;;;;;5076954;28;20585;-72
2021/07/23 07:58:53;;;;;;;8.63;6.20;;;25.80;99.90;;;;;;5077634;28;20179;-73
2021/07/23 08:01:18;;;;;;;6.90;6.30;;;24.60;99.90;;;;;;5075095;28;20261;-72
2021/07/23 08:03:44;;;;;;;11.60;7.10;;;24.80;99.90;;;;;;5077372;28;20185;-72
2021/07/23 08:06:22;;;;;;;7.47;6.20;;;24.50;99.90;;;;;;5077120;28;20231;-72
2021/07/23 08:08:49;;;;;;;7.87;7.07;;;25.70;99.90;;;;;;5077197;28;20645;-72
2021/07/23 08:11:15;;;;;;;6.93;6.23;;;24.80;99.90;;;;;;5076599;28;20420;-73
2021/07/23 08:13:41;;;;;;;10.93;8.30;;;25.40;99.90;;;;;;5076535;28;20477;-72
2021/07/23 08:16:06;;;;;;;6.73;6.00;;;24.70;99.90;;;;;;5078694;28;20408;-73
2021/07/23 08:18:34;;;;;;;7.07;6.37;;;25.30;99.90;;;;;;5077730;28;20174;-72
2021/07/23 08:21:01;;;;;;;9.03;7.00;;;25.40;99.90;;;;;;5059285;28;20487;-74
2021/07/23 08:23:26;;;;;;;6.90;6.30;;;25.60;99.90;;;;;;5077032;28;20467;-74
2021/07/23 08:25:52;;;;;;;9.27;7.73;;;25.10;99.90;;;;;;5076022;28;20415;-72
2021/07/23 08:28:17;;;;;;;7.70;6.30;;;24.40;99.90;;;;;;5076320;28;20173;-73
2021/07/23 08:30:43;;;;;;;9.60;6.83;;;24.40;99.90;;;;;;5077658;28;20191;-74
2021/07/23 08:33:09;;;;;;;7.33;6.50;;;23.50;99.90;;;;;;5077300;28;20205;-72
2021/07/23 08:35:36;;;;;;;6.90;6.20;;;23.70;99.90;;;;;;5076569;28;20170;-72
2021/07/23 08:38:01;;;;;;;9.57;6.00;;;24.10;99.90;;;;;;5077668;28;20460;-72
2021/07/23 08:40:27;;;;;;;6.23;5.67;;;24.10;99.90;;;;;;5076585;28;20424;-72
2021/07/23 08:42:53;;;;;;;7.00;6.30;;;24.70;99.90;;;;;;5075765;28;20656;-72
2021/07/23 08:45:18;;;;;;;7.10;6.50;;;24.70;99.90;;;;;;5075470;28;20191;-72
2021/07/23 08:47:44;;;;;;;7.30;6.70;;;24.60;99.90;;;;;;5077926;28;20175;-73
2021/07/23 08:50:10;;;;;;;6.83;6.13;;;25.00;99.90;;;;;;5078156;28;20189;-73
2021/07/23 08:52:50;;;;;;;9.13;6.67;;;25.20;99.90;;;;;;5079287;28;20591;-72
2021/07/23 08:55:17;;;;;;;7.07;6.47;;;24.80;99.90;;;;;;5081433;28;20258;-74
2021/07/23 08:57:44;;;;;;;10.30;6.40;;;24.80;99.90;;;;;;5081293;28;20407;-72
2021/07/23 09:00:17;;;;;;;8.60;6.60;;;25.00;99.90;;;;;;5081451;28;20431;-73
2021/07/23 09:03:06;;;;;;;7.87;5.87;;;25.10;99.90;;;;;;5081493;28;20961;-73
2021/07/23 09:05:34;;;;;;;6.60;6.00;;;25.50;99.90;;;;;;5080269;28;20407;-74
2021/07/23 09:08:17;;;;;;;6.77;6.07;;;26.30;99.90;;;;;;5079845;28;20435;-73
2021/07/23 09:10:46;;;;;;;6.97;4.90;;;25.00;99.90;;;;;;5080255;28;20443;-73
2021/07/23 09:13:22;;;;;;;5.77;5.23;;;24.80;99.90;;;;;;5080710;28;20515;-73
2021/07/23 09:15:48;;;;;;;6.60;6.00;;;25.30;99.90;;;;;;5079982;28;20400;-73
2021/07/23 09:18:26;;;;;;;6.70;5.53;;;26.50;99.90;;;;;;5078915;28;20407;-73
2021/07/23 09:20:56;;;;;;;6.10;5.50;;;25.60;99.90;;;;;;5078259;28;20224;-72
2021/07/23 09:23:38;;;;;;;5.80;5.30;;;25.70;99.90;;;;;;5077660;28;20404;-73
2021/07/23 09:26:17;;;;;;;6.33;5.83;;;26.70;99.90;;;;;;5077553;28;20411;-74
2021/07/23 09:28:47;;;;;;;9.50;4.97;;;26.40;99.90;;;;;;5077981;28;20400;-72
2021/07/23 09:31:20;;;;;;;6.90;5.57;;;26.80;99.90;;;;;;5077805;28;20960;-73
2021/07/23 09:33:46;;;;;;;6.30;5.70;;;26.60;99.90;;;;;;5077901;28;20602;-72
2021/07/23 09:36:12;;;;;;;6.07;5.57;;;27.40;99.90;;;;;;5074549;28;20423;-72
2021/07/23 09:38:43;;;;;;;7.23;6.53;;;27.80;99.90;;;;;;5074326;28;20554;-72
2021/07/23 09:41:22;;;;;;;8.73;6.23;;;27.50;99.90;;;;;;5074441;28;20455;-69
2021/07/23 09:44:04;;;;;;;6.80;6.10;;;27.60;99.90;;;;;;5074141;28;20925;-70
2021/07/23 09:46:42;;;;;;;7.30;6.60;;;27.30;99.90;;;;;;5073163;28;20880;-71
2021/07/23 09:49:26;;;;;;;7.37;6.57;;;26.30;99.90;;;;;;5074004;28;20420;-71
2021/07/23 09:51:55;;;;;;;6.93;6.30;;;27.00;99.90;;;;;;5074342;28;20413;-70
2021/07/23 09:54:21;;;;;;;7.83;6.40;;;27.40;99.90;;;;;;5074283;28;20463;-70
2021/07/23 09:56:48;;;;;;;7.53;6.20;;;27.40;99.90;;;;;;5074071;28;20939;-71
2021/07/23 09:59:25;;;;;;;6.63;5.93;;;27.90;99.90;;;;;;5074011;28;20435;-71
2021/07/23 10:01:57;;;;;;;8.23;7.43;;;26.90;99.90;;;;;;5074135;28;20404;-71
2021/07/23 10:04:47;;;;;;;8.33;7.53;;;25.50;99.90;;;;;;5073746;28;20428;-72
2021/07/23 10:07:20;;;;;;;8.27;7.57;;;26.10;99.90;;;;;;5069653;28;20526;-71
2021/07/23 10:09:47;;;;;;;7.90;7.20;;;25.10;99.90;;;;;;5073570;28;20436;-71
2021/07/23 10:12:16;;;;;;;8.20;7.50;;;25.70;99.90;;;;;;5073713;28;20496;-70
2021/07/23 10:14:45;;;;;;;9.67;8.63;;;24.90;99.90;;;;;;5073775;28;20463;-70
2021/07/23 10:17:12;;;;;;;8.17;7.40;;;25.40;99.90;;;;;;5073918;28;20909;-71
2021/07/23 10:19:37;;;;;;;8.20;7.50;;;25.60;99.90;;;;;;5073777;28;20463;-71
2021/07/23 10:22:04;;;;;;;8.07;7.27;;;25.50;99.90;;;;;;5072504;28;20434;-70
2021/07/23 10:24:36;;;;;;;7.43;6.73;;;25.00;99.90;;;;;;5073622;28;20162;-71
2021/07/23 10:27:09;;;;;;;8.73;7.87;;;26.10;99.90;;;;;;5073829;28;20431;-71
2021/07/23 10:29:48;;;;;;;8.30;7.60;;;26.50;99.90;;;;;;5073324;28;20941;-71
2021/07/23 10:32:32;;;;;;;8.40;7.57;;;25.40;99.90;;;;;;5073524;28;20898;-71
2021/07/23 10:35:00;;;;;;;10.10;8.80;;;24.80;99.90;;;;;;5073653;28;20789;-71
2021/07/23 10:37:28;;;;;;;9.50;8.70;;;26.10;99.90;;;;;;5074374;28;20400;-73
2021/07/23 10:40:12;;;;;;;9.60;8.07;;;25.50;99.90;;;;;;5078175;28;20417;-71
2021/07/23 10:42:43;;;;;;;10.10;9.00;;;25.40;99.90;;;;;;5078115;28;20397;-72
2021/07/23 10:45:41;;;;;;;8.80;8.10;;;25.30;99.90;;;;;;5078465;28;20417;-72
2021/07/23 10:48:07;;;;;;;10.00;8.73;;;24.60;99.90;;;;;;5079689;28;20503;-72
2021/07/23 10:50:38;;;;;;;8.40;7.70;;;24.60;99.90;;;;;;5078869;28;20423;-71
2021/07/23 10:53:31;;;;;;;10.53;8.23;;;25.10;99.90;;;;;;5079267;28;20186;-70
2021/07/23 10:55:57;;;;;;;7.93;7.20;;;25.20;99.90;;;;;;5079085;28;20393;-72
2021/07/23 10:58:22;;;;;;;9.20;8.20;;;25.80;99.90;;;;;;5078370;28;20831;-71
2021/07/23 11:00:52;;;;;;;9.97;8.97;;;24.50;99.90;;;;;;5077861;28;20186;-70
2021/07/23 11:03:36;;;;;;;12.73;9.60;;;24.50;99.90;;;;;;5077741;28;20185;-72
2021/07/23 11:06:16;;;;;;;9.00;8.10;;;25.40;99.90;;;;;;5078008;28;20409;-73
2021/07/23 11:08:52;;;;;;;9.73;8.83;;;26.10;99.90;;;;;;5078526;28;20475;-73
2021/07/23 11:11:20;;;;;;;9.23;8.33;;;26.20;99.90;;;;;;5078949;28;20418;-73
2021/07/23 11:13:46;;;;;;;7.80;7.10;;;25.90;99.90;;;;;;5078218;28;20961;-73
2021/07/23 11:16:14;;;;;;;9.53;8.53;;;25.90;99.90;;;;;;5076334;28;20419;-73
2021/07/23 11:18:59;;;;;;;9.23;8.33;;;25.90;99.90;;;;;;5076937;28;20414;-73
2021/07/23 11:21:36;;;;;;;12.07;8.60;;;25.90;99.90;;;;;;5076169;28;20403;-71
2021/07/23 11:24:09;;;;;;;9.50;7.80;;;26.10;99.90;;;;;;5076840;28;20405;-73
2021/07/23 11:26:36;;;;;;;7.97;7.27;;;25.40;99.90;;;;;;5076788;28;20479;-73
2021/07/23 11:29:01;;;;;;;7.90;7.10;;;26.00;99.90;;;;;;5075738;28;20408;-73
2021/07/23 11:31:35;;;;;;;9.23;7.60;;;25.70;99.90;;;;;;5077083;28;20420;-73
2021/07/23 11:34:23;;;;;;;7.80;6.93;;;25.40;99.90;;;;;;5077308;28;20202;-72
2021/07/23 11:36:49;;;;;;;9.20;8.00;;;25.30;99.90;;;;;;5078376;28;20408;-71
2021/07/23 11:39:15;;;;;;;7.80;7.00;;;26.00;99.90;;;;;;5078332;28;20432;-72
2021/07/23 11:41:58;;;;;;;8.50;7.70;;;26.30;99.90;;;;;;5078746;28;20502;-73
2021/07/23 11:44:24;;;;;;;8.87;7.50;;;26.10;99.90;;;;;;5076937;28;20180;-72
2021/07/23 11:46:49;;;;;;;8.10;6.97;;;26.20;99.90;;;;;;5077608;28;20777;-73
2021/07/23 11:49:15;;;;;;;10.53;9.23;;;26.10;99.90;;;;;;5078112;28;20196;-73
2021/07/23 11:51:45;;;;;;;8.60;7.63;;;25.90;99.90;;;;;;5077469;28;20260;-75
2021/07/23 11:54:11;;;;;;;7.63;6.83;;;25.80;99.90;;;;;;5076620;28;20203;-72
2021/07/23 11:56:37;;;;;;;9.23;8.33;;;25.80;99.90;;;;;;5077693;28;20412;-72
2021/07/23 11:59:03;;;;;;;7.90;7.03;;;26.30;99.90;;;;;;5077563;28;20411;-72
2021/07/23 12:01:37;;;;;;;8.87;7.87;;;25.20;99.90;;;;;;5076618;28;20913;-73
2021/07/23 12:04:02;;;;;;;9.07;8.00;;;25.60;99.90;;;;;;5077253;28;20450;-72
2021/07/23 12:06:31;;;;;;;9.30;8.03;;;25.70;99.90;;;;;;5076645;28;20818;-71
2021/07/23 12:09:00;;;;;;;9.37;7.80;;;25.70;99.90;;;;;;5076673;28;20821;-72
2021/07/23 12:11:29;;;;;;;8.83;8.03;;;26.10;99.90;;;;;;5076050;28;20408;-72
2021/07/23 12:13:55;;;;;;;8.27;7.53;;;26.00;99.90;;;;;;5075093;28;20939;-73
2021/07/23 12:16:21;;;;;;;9.10;7.67;;;25.80;99.90;;;;;;5074975;28;20953;-73
2021/07/23 12:19:01;;;;;;;9.17;8.37;;;26.10;99.90;;;;;;5076531;28;20413;-73
2021/07/23 12:21:27;;;;;;;8.80;7.70;;;25.50;99.90;;;;;;5077456;28;20658;-73
2021/07/23 12:24:12;;;;;;;7.97;7.17;;;25.10;99.90;;;;;;5077464;28;20415;-72
2021/07/23 12:26:40;;;;;;;7.03;6.33;;;25.50;99.90;;;;;;5078039;28;20458;-73
2021/07/23 12:29:08;;;;;;;7.97;6.70;;;25.50;99.90;;;;;;5081204;28;20415;-73
2021/07/23 12:31:34;;;;;;;8.67;7.90;;;25.80;99.90;;;;;;5081410;28;20905;-72
2021/07/23 12:34:09;;;;;;;9.20;8.30;;;25.20;99.90;;;;;;5081560;28;20524;-71
2021/07/23 12:36:42;;;;;;;8.57;7.70;;;25.20;99.90;;;;;;5081522;28;20190;-73
2021/07/23 12:39:08;;;;;;;8.67;7.23;;;25.40;99.90;;;;;;5081936;28;20452;-73